Time;durP1;ratioP1;P1;durP2;ratioP2;P2;SDS_P1;SDS_P2;PMS_P1;PMS_P2;Temp;Humidity;BMP_temperature;BMP_pressure;BME280_temperature;BME280_humidity;BME280_pressure;Samples;Min_cycle;Max_cycle;Signal;HPM_P1;HPM_P2
2023/01/19 00:00:23;;;;;;;;;;;;;;;-19.53;38.84;99153.13;6214386;28;19976;-64
2023/01/19 00:03:26;;;;;;;;;;;;;;;-19.56;38.08;99151.94;6213936;28;19926;-63
2023/01/19 00:06:31;;;;;;;;;;;;;;;-19.57;37.84;99150.19;6219306;28;19988;-63
2023/01/19 00:09:32;;;;;;;;;;;;;;;-19.60;38.04;99148.28;6215604;28;19926;-64
2023/01/19 00:12:38;;;;;;;;;;;;;;;-19.60;38.29;99147.41;6220456;28;19925;-62
2023/01/19 00:15:41;;;;;;;;;;;;;;;-19.60;38.46;99152.44;6216592;28;20294;-64
2023/01/19 00:18:43;;;;;;;;;;;;;;;-19.61;37.85;99150.66;6218798;28;19941;-63
2023/01/19 00:21:46;;;;;;;;;;;;;;;-19.65;37.92;99154.56;6222256;28;19925;-64
2023/01/19 00:24:50;;;;;;;;;;;;;;;-19.68;38.21;99151.78;6222107;28;19947;-63
2023/01/19 00:27:53;;;;;;;;;;;;;;;-19.68;38.26;99141.75;6226445;28;19933;-63
2023/01/19 00:30:54;;;;;;;;;;;;;;;-19.66;39.49;99139.41;6221506;28;19926;-63
2023/01/19 00:33:55;;;;;;;;;;;;;;;-19.63;38.89;99140.50;6222072;28;20436;-63
2023/01/19 00:37:01;;;;;;;;;;;;;;;-19.61;37.95;99146.53;6221987;28;19925;-63
2023/01/19 00:40:05;;;;;;;;;;;;;;;-19.61;38.34;99144.03;6222214;28;19949;-62
2023/01/19 00:43:06;;;;;;;;;;;;;;;-19.60;39.07;99138.25;6221884;28;19932;-63
2023/01/19 00:46:11;;;;;;;;;;;;;;;-19.57;39.76;99146.06;6220749;28;20287;-63
2023/01/19 00:49:12;;;;;;;;;;;;;;;-19.56;39.78;99142.78;6219049;28;19925;-63
2023/01/19 00:52:13;;;;;;;;;;;;;;;-19.52;39.54;99143.97;6222908;28;20310;-64
2023/01/19 00:55:23;;;;;;;;;;;;;;;-19.54;40.34;99146.31;6219792;28;19925;-64
2023/01/19 00:58:27;;;;;;;;;;;;;;;-19.51;39.71;99141.56;6222768;28;19925;-63
2023/01/19 01:01:30;;;;;;;;;;;;;;;-19.51;39.09;99136.56;6217761;28;19925;-63
2023/01/19 01:04:31;;;;;;;;;;;;;;;-19.50;38.90;99138.34;6213664;28;20410;-63
2023/01/19 01:07:39;;;;;;;;;;;;;;;-19.52;39.63;99132.31;6221057;28;19930;-63
2023/01/19 01:10:42;;;;;;;;;;;;;;;-19.52;38.16;99127.28;6220054;28;20401;-64
2023/01/19 01:13:43;;;;;;;;;;;;;;;-19.55;39.05;99123.63;6214230;28;19925;-62
2023/01/19 01:16:47;;;;;;;;;;;;;;;-19.59;38.77;99130.00;6212962;28;19936;-64
2023/01/19 01:19:51;;;;;;;;;;;;;;;-19.60;39.25;99128.25;6212763;28;20590;-63
2023/01/19 01:22:52;;;;;;;;;;;;;;;-19.57;39.27;99123.50;6220372;28;20337;-64
2023/01/19 01:25:55;;;;;;;;;;;;;;;-19.54;39.55;99122.88;6217328;28;19926;-63
2023/01/19 01:28:59;;;;;;;;;;;;;;;-19.51;39.28;99120.63;6208110;28;20036;-64
2023/01/19 01:32:00;;;;;;;;;;;;;;;-19.51;39.83;99123.16;6218960;28;19932;-63
2023/01/19 01:35:01;;;;;;;;;;;;;;;-19.50;39.79;99132.41;6222539;28;19932;-64
2023/01/19 01:38:06;;;;;;;;;;;;;;;-19.51;38.94;99134.06;6218564;28;20298;-64
2023/01/19 01:41:07;;;;;;;;;;;;;;;-19.54;40.13;99126.25;6212335;28;19921;-63
2023/01/19 01:44:27;;;;;;;;;;;;;;;-19.51;40.14;99141.56;6211985;28;19929;-63
2023/01/19 01:47:38;;;;;;;;;;;;;;;-19.50;40.91;99148.38;6220645;28;19947;-64
2023/01/19 01:51:22;;;;;;;;;;;;;;;-19.49;39.47;99140.09;6220230;28;19929;-63
2023/01/19 01:54:03;;;;;;;;;;;;;;;-19.55;38.96;99134.53;6218042;28;19925;-63
2023/01/19 01:57:11;;;;;;;;;;;;;;;-19.58;39.71;99148.44;6217325;28;20312;-63
2023/01/19 02:00:12;;;;;;;;;;;;;;;-19.59;39.91;99142.53;6211385;28;20358;-63
2023/01/19 02:03:14;;;;;;;;;;;;;;;-19.59;39.40;99142.53;6212035;28;19921;-62
2023/01/19 02:06:18;;;;;;;;;;;;;;;-19.62;39.96;99149.78;6213032;28;19925;-64
2023/01/19 02:16:02;;;;;;;;;;;;;;;-19.68;39.79;99146.75;6213136;28;19925;-63
2023/01/19 02:19:07;;;;;;;;;;;;;;;-19.71;40.31;99146.50;6212205;28;19937;-64
2023/01/19 02:22:15;;;;;;;;;;;;;;;-19.73;39.78;99148.84;6216737;28;20012;-62
2023/01/19 02:25:18;;;;;;;;;;;;;;;-19.73;39.25;99143.84;6221449;28;19930;-63
2023/01/19 02:28:19;;;;;;;;;;;;;;;-19.74;39.30;99141.22;6217071;28;19933;-63
2023/01/19 02:31:23;;;;;;;;;;;;;;;-19.75;39.27;99140.34;6199588;28;20027;-64
2023/01/19 02:34:24;;;;;;;;;;;;;;;-19.75;38.55;99140.34;6217614;28;20659;-63
2023/01/19 02:37:27;;;;;;;;;;;;;;;-19.77;39.04;99149.34;6223819;28;19970;-63
2023/01/19 02:40:30;;;;;;;;;;;;;;;-19.78;39.31;99146.72;6213146;28;19925;-64
2023/01/19 02:43:32;;;;;;;;;;;;;;;-19.75;39.52;99149.50;6221729;28;19925;-63
2023/01/19 02:46:33;;;;;;;;;;;;;;;-19.72;39.94;99159.78;6220224;28;19926;-63
2023/01/19 02:49:40;;;;;;;;;;;;;;;-19.68;39.75;99156.78;6217816;28;19931;-63
2023/01/19 02:52:41;;;;;;;;;;;;;;;-19.65;40.67;99151.16;6220484;28;19925;-64
2023/01/19 02:55:46;;;;;;;;;;;;;;;-19.65;40.44;99154.56;6219287;28;20295;-63
2023/01/19 02:58:58;;;;;;;;;;;;;;;-19.65;40.62;99156.19;6221503;28;19926;-63
2023/01/19 03:01:59;;;;;;;;;;;;;;;-19.63;40.15;99150.53;6218140;28;19925;-63
2023/01/19 03:05:20;;;;;;;;;;;;;;;-19.62;39.69;99154.78;6218206;28;20012;-63
2023/01/19 03:08:23;;;;;;;;;;;;;;;-19.62;39.70;99152.28;6219344;28;19925;-63
2023/01/19 03:11:32;;;;;;;;;;;;;;;-19.60;41.95;99154.94;6218368;28;19925;-66
2023/01/19 03:14:37;;;;;;;;;;;;;;;-19.58;41.78;99151.81;6217875;28;19932;-65
2023/01/19 03:17:39;;;;;;;;;;;;;;;-19.57;40.08;99151.06;6213659;28;19926;-73
2023/01/19 03:20:42;;;;;;;;;;;;;;;-19.58;39.78;99141.78;6222308;28;20422;-65
2023/01/19 03:23:46;;;;;;;;;;;;;;;-19.59;40.01;99150.03;6219651;28;19925;-66
2023/01/19 03:26:57;;;;;;;;;;;;;;;-19.62;39.84;99142.25;6222445;28;19927;-66
2023/01/19 03:30:17;;;;;;;;;;;;;;;-19.63;40.02;99153.03;6185663;28;19929;-65
2023/01/19 03:33:30;;;;;;;;;;;;;;;-19.66;39.84;99147.78;6219213;28;19921;-66
2023/01/19 03:36:40;;;;;;;;;;;;;;;-19.65;40.47;99144.53;6218225;28;19926;-66
2023/01/19 03:39:48;;;;;;;;;;;;;;;-19.64;40.32;99138.75;6204465;28;20025;-65
2023/01/19 03:42:54;;;;;;;;;;;;;;;-19.63;40.68;99143.00;6223081;28;20007;-64
2023/01/19 03:45:58;;;;;;;;;;;;;;;-19.63;40.57;99145.50;6215530;28;19925;-67
2023/01/19 03:49:02;;;;;;;;;;;;;;;-19.63;40.90;99145.50;6211483;28;20402;-65
2023/01/19 03:56:04;;;;;;;;;;;;;;;-19.62;40.55;99144.75;6220031;28;20367;-67
2023/01/19 03:59:11;;;;;;;;;;;;;;;-19.57;41.44;99136.03;6200771;28;20397;-65
2023/01/19 04:02:13;;;;;;;;;;;;;;;-19.54;40.67;99138.78;6218249;28;20080;-66
2023/01/19 04:05:14;;;;;;;;;;;;;;;-19.50;40.89;99132.41;6217848;28;19925;-66
2023/01/19 04:08:15;;;;;;;;;;;;;;;-19.50;40.57;99142.44;6217906;28;19933;-67
2023/01/19 04:11:16;;;;;;;;;;;;;;;-19.51;40.70;99146.59;6222154;28;20394;-67
2023/01/19 04:14:17;;;;;;;;;;;;;;;-19.50;40.48;99145.88;6222144;28;19926;-67
2023/01/19 04:17:25;;;;;;;;;;;;;;;-19.48;40.37;99151.88;6220061;28;19926;-70
2023/01/19 04:20:51;;;;;;;;;;;;;;;-19.44;40.44;99157.16;6222013;28;19925;-69
2023/01/19 04:23:55;;;;;;;;;;;;;;;-19.41;40.43;99162.47;6222228;28;19925;-70
2023/01/19 04:26:58;;;;;;;;;;;;;;;-19.34;41.21;99162.22;6221227;28;20011;-70
2023/01/19 04:29:59;;;;;;;;;;;;;;;-19.22;40.15;99165.81;6221944;28;19926;-70
2023/01/19 04:33:02;;;;;;;;;;;;;;;-19.11;39.42;99164.22;6221692;28;20355;-70
2023/01/19 04:36:03;;;;;;;;;;;;;;;-19.04;40.06;99167.41;6220770;28;20391;-68
2023/01/19 04:39:07;;;;;;;;;;;;;;;-18.93;40.67;99175.00;6221187;28;19983;-70
2023/01/19 04:42:10;;;;;;;;;;;;;;;-18.85;42.14;99176.50;6221437;28;19925;-70
2023/01/19 04:45:14;;;;;;;;;;;;;;;-18.80;40.58;99182.81;6203667;28;19925;-70
2023/01/19 04:48:17;;;;;;;;;;;;;;;-18.73;40.42;99185.09;6220468;28;19926;-69
2023/01/19 04:51:19;;;;;;;;;;;;;;;-18.67;40.53;99190.63;6220727;28;19925;-69
2023/01/19 04:54:22;;;;;;;;;;;;;;;-18.58;40.74;99190.53;6220782;28;20331;-69
2023/01/19 04:57:23;;;;;;;;;;;;;;;-18.47;40.68;99188.94;6220969;28;19925;-69
2023/01/19 05:00:26;;;;;;;;;;;;;;;-18.38;39.75;99187.19;6220482;28;19930;-69
2023/01/19 05:03:31;;;;;;;;;;;;;;;-18.29;39.77;99195.50;6221269;28;20424;-69
2023/01/19 05:06:33;;;;;;;;;;;;;;;-18.20;39.58;99196.28;6220042;28;19926;-69
2023/01/19 05:09:36;;;;;;;;;;;;;;;-18.10;39.13;99197.91;6220512;28;19932;-68
2023/01/19 05:12:37;;;;;;;;;;;;;;;-17.96;39.38;99191.53;6220465;28;19925;-69
2023/01/19 05:15:40;;;;;;;;;;;;;;;-17.87;38.99;99192.28;6203424;28;19963;-68
2023/01/19 05:18:41;;;;;;;;;;;;;;;-17.80;39.19;99189.53;6220199;28;20398;-70
2023/01/19 05:21:45;;;;;;;;;;;;;;;-17.72;39.36;99202.69;6220806;28;19922;-69
2023/01/19 05:24:46;;;;;;;;;;;;;;;-17.59;39.01;99202.06;6219962;28;19941;-70
2023/01/19 05:27:53;;;;;;;;;;;;;;;-17.43;39.19;99202.56;6220899;28;19940;-70
2023/01/19 05:30:54;;;;;;;;;;;;;;;-17.30;39.31;99192.72;6220936;28;19921;-69
2023/01/19 05:33:56;;;;;;;;;;;;;;;-17.18;39.66;99199.47;6219872;28;19925;-69
2023/01/19 05:36:59;;;;;;;;;;;;;;;-17.05;39.98;99198.06;6202937;28;19929;-69
2023/01/19 05:40:00;;;;;;;;;;;;;;;-16.92;39.59;99210.00;6220105;28;19925;-70
2023/01/19 05:43:03;;;;;;;;;;;;;;;-16.80;40.12;99207.56;6220408;28;19926;-69
2023/01/19 05:46:04;;;;;;;;;;;;;;;-16.65;39.72;99205.34;6220481;28;20026;-70
2023/01/19 05:49:06;;;;;;;;;;;;;;;-16.51;40.12;99204.78;6220535;28;19995;-69
2023/01/19 05:52:09;;;;;;;;;;;;;;;-16.38;40.27;99206.63;6219721;28;19925;-69
2023/01/19 05:55:10;;;;;;;;;;;;;;;-16.24;40.15;99216.13;6220409;28;20184;-69
2023/01/19 05:58:11;;;;;;;;;;;;;;;-16.10;40.43;99218.06;6220575;28;20030;-70
2023/01/19 06:01:15;;;;;;;;;;;;;;;-15.91;40.94;99216.91;6225635;28;19948;-70
2023/01/19 06:04:19;;;;;;;;;;;;;;;-15.75;40.10;99217.31;6225247;28;19926;-69
2023/01/19 06:07:22;;;;;;;;;;;;;;;-15.56;40.43;99221.19;6225049;28;19925;-70
2023/01/19 06:10:23;;;;;;;;;;;;;;;-15.38;39.61;99223.41;6224819;28;19930;-69
2023/01/19 06:13:26;;;;;;;;;;;;;;;-15.23;41.04;99217.72;6224913;28;19932;-69
2023/01/19 06:16:27;;;;;;;;;;;;;;;-15.07;40.82;99215.56;6224942;28;19973;-69
2023/01/19 06:19:34;;;;;;;;;;;;;;;-14.89;40.20;99215.13;6224870;28;19930;-70
2023/01/19 06:22:37;;;;;;;;;;;;;;;-14.72;40.53;99222.25;6224715;28;19933;-69
2023/01/19 06:25:38;;;;;;;;;;;;;;;-14.55;40.37;99206.66;6224612;28;20004;-69
2023/01/19 06:28:39;;;;;;;;;;;;;;;-14.37;41.07;99218.81;6223837;28;19925;-70
2023/01/19 06:31:42;;;;;;;;;;;;;;;-14.21;41.09;99206.44;6224778;28;20019;-70
2023/01/19 06:34:45;;;;;;;;;;;;;;;-14.03;42.09;99207.72;6224436;28;20310;-69
2023/01/19 06:37:46;;;;;;;;;;;;;;;-13.90;41.79;99203.47;6224099;28;19925;-68
2023/01/19 06:40:52;;;;;;;;;;;;;;;-13.74;40.82;99216.41;6224459;28;19933;-69
2023/01/19 06:43:53;;;;;;;;;;;;;;;-13.55;41.09;99218.53;6223709;28;19932;-68
2023/01/19 06:46:55;;;;;;;;;;;;;;;-13.41;41.22;99212.72;6205612;28;19925;-68
2023/01/19 06:50:01;;;;;;;;;;;;;;;-13.23;41.32;99218.06;6224068;28;19926;-68
2023/01/19 06:53:04;;;;;;;;;;;;;;;-13.06;41.11;99214.13;6224540;28;19933;-69
2023/01/19 06:56:08;;;;;;;;;;;;;;;-12.88;40.88;99211.88;6223937;28;19926;-69
2023/01/19 06:59:11;;;;;;;;;;;;;;;-12.49;40.70;99210.13;6224017;28;19929;-68
2023/01/19 07:02:19;;;;;;;;;;;;;;;-10.52;38.44;99215.81;6224012;28;20027;-69
2023/01/19 07:05:20;;;;;;;;;;;;;;;-7.71;34.78;99223.00;6223648;28;19925;-69
2023/01/19 07:08:22;;;;;;;;;;;;;;;-5.80;34.08;99220.53;6223522;28;19926;-69
2023/01/19 07:11:25;;;;;;;;;;;;;;;-1.66;29.18;99222.47;6222506;28;19926;-69
2023/01/19 07:14:32;;;;;;;;;;;;;;;1.54;26.40;99216.06;6223665;28;19925;-69
2023/01/19 07:17:34;;;;;;;;;;;;;;;4.00;22.67;99213.56;6223704;28;20399;-68
2023/01/19 07:20:36;;;;;;;;;;;;;;;6.43;22.92;99212.16;6222876;28;19932;-69
2023/01/19 07:23:42;;;;;;;;;;;;;;;9.30;20.63;99205.69;6223956;28;20298;-70
2023/01/19 07:26:43;;;;;;;;;;;;;;;11.97;17.75;99200.06;6223503;28;19929;-69
2023/01/19 07:29:46;;;;;;;;;;;;;;;14.48;16.99;99198.38;6222856;28;20349;-69
2023/01/19 07:32:49;;;;;;;;;;;;;;;16.66;16.53;99195.06;6222486;28;19925;-70
2023/01/19 07:35:56;;;;;;;;;;;;;;;18.44;15.72;99201.09;6221773;28;19925;-69
2023/01/19 07:38:57;;;;;;;;;;;;;;;19.99;16.40;99200.25;6222424;28;20398;-69
2023/01/19 07:41:58;;;;;;;;;;;;;;;21.18;14.58;99182.28;6222646;28;19975;-69
2023/01/19 07:45:01;;;;;;;;;;;;;;;22.14;14.76;99177.88;6205212;28;19929;-70
2023/01/19 07:48:04;;;;;;;;;;;;;;;22.96;15.31;99171.63;6222629;28;20446;-70
2023/01/19 07:51:11;;;;;;;;;;;;;;;23.78;15.55;99173.97;6204742;28;19936;-69
2023/01/19 07:54:12;;;;;;;;;;;;;;;24.47;15.89;99177.13;6222259;28;19932;-69
2023/01/19 07:57:16;;;;;;;;;;;;;;;25.03;15.25;99174.03;6222275;28;19921;-69
2023/01/19 08:00:24;;;;;;;;;;;;;;;25.70;13.61;99166.31;6222277;28;19968;-69
2023/01/19 08:03:27;;;;;;;;;;;;;;;26.80;13.92;99166.00;6222381;28;20353;-69
2023/01/19 08:06:32;;;;;;;;;;;;;;;27.57;10.59;99169.38;6221778;28;19926;-69
2023/01/19 08:09:33;;;;;;;;;;;;;;;27.76;11.87;99175.53;6222029;28;20075;-70
2023/01/19 08:12:39;;;;;;;;;;;;;;;27.86;9.64;99169.25;6221790;28;19925;-71
2023/01/19 08:15:47;;;;;;;;;;;;;;;27.97;12.38;99171.72;6221903;28;19925;-70
2023/01/19 08:18:49;;;;;;;;;;;;;;;28.12;13.02;99167.47;6221821;28;19933;-70
2023/01/19 08:21:53;;;;;;;;;;;;;;;28.18;13.55;99171.41;6220941;28;19925;-69
2023/01/19 08:24:56;;;;;;;;;;;;;;;28.37;13.21;99173.94;6204510;28;20016;-71
2023/01/19 08:27:57;;;;;;;;;;;;;;;28.53;13.08;99178.63;6221360;28;20016;-69
2023/01/19 08:30:58;;;;;;;;;;;;;;;28.66;13.36;99178.25;6220849;28;20011;-69
2023/01/19 08:34:01;;;;;;;;;;;;;;;28.74;12.72;99169.31;6221317;28;20420;-70
2023/01/19 08:37:05;;;;;;;;;;;;;;;28.80;11.63;99163.25;6173311;28;20384;-69
2023/01/19 08:40:12;;;;;;;;;;;;;;;28.77;12.59;99169.00;6172850;28;19926;-69
2023/01/19 08:43:16;;;;;;;;;;;;;;;28.81;11.51;99164.94;6172874;28;19926;-70
2023/01/19 08:46:21;;;;;;;;;;;;;;;28.97;12.01;99165.06;6172710;28;19926;-70
2023/01/19 08:49:24;;;;;;;;;;;;;;;29.05;11.52;99167.84;6172922;28;20307;-69
2023/01/19 08:52:25;;;;;;;;;;;;;;;29.04;10.11;99166.13;6172719;28;20016;-70
2023/01/19 08:55:27;;;;;;;;;;;;;;;29.04;11.84;99165.28;6172669;28;19926;-70
2023/01/19 08:58:31;;;;;;;;;;;;;;;29.03;10.96;99169.84;6172780;28;19933;-69
2023/01/19 09:01:32;;;;;;;;;;;;;;;28.95;11.66;99177.06;6171097;28;20017;-70
2023/01/19 09:04:35;;;;;;;;;;;;;;;28.73;11.93;99170.31;6172538;28;20357;-70
2023/01/19 09:07:38;;;;;;;;;;;;;;;28.62;10.31;99174.13;6171074;28;19926;-70
2023/01/19 09:10:46;;;;;;;;;;;;;;;28.43;10.53;99177.91;6172398;28;20319;-71
2023/01/19 09:13:50;;;;;;;;;;;;;;;28.10;11.39;99172.16;6172532;28;19925;-71
2023/01/19 09:16:55;;;;;;;;;;;;;;;27.90;11.36;99167.91;6172624;28;19926;-70
2023/01/19 09:19:59;;;;;;;;;;;;;;;27.77;11.07;99174.53;6172411;28;19926;-70
2023/01/19 09:23:01;;;;;;;;;;;;;;;27.67;11.40;99171.03;6172353;28;20016;-70
2023/01/19 09:26:04;;;;;;;;;;;;;;;27.37;11.38;99168.66;6172338;28;19926;-72
2023/01/19 09:29:05;;;;;;;;;;;;;;;26.97;11.40;99172.50;6171996;28;19926;-71
2023/01/19 09:32:10;;;;;;;;;;;;;;;26.59;11.37;99174.31;6171970;28;19926;-70
2023/01/19 09:35:12;;;;;;;;;;;;;;;26.17;11.49;99177.31;6190048;28;19932;-72
2023/01/19 09:38:15;;;;;;;;;;;;;;;25.77;11.13;99167.47;6219971;28;20421;-70
2023/01/19 09:41:20;;;;;;;;;;;;;;;25.46;11.57;99175.63;6220377;28;20379;-72
2023/01/19 09:44:28;;;;;;;;;;;;;;;25.17;12.03;99169.31;6220578;28;19948;-72
2023/01/19 09:47:35;;;;;;;;;;;;;;;24.80;12.17;99177.91;6220607;28;19925;-72
2023/01/19 09:50:45;;;;;;;;;;;;;;;24.48;12.29;99173.44;6202342;28;19926;-70
2023/01/19 09:53:51;;;;;;;;;;;;;;;24.18;11.65;99171.50;6219255;28;19926;-71
2023/01/19 09:56:55;;;;;;;;;;;;;;;23.88;12.57;99172.22;6220905;28;20039;-69
2023/01/19 10:00:02;;;;;;;;;;;;;;;23.49;12.39;99171.81;6220731;28;19933;-72
2023/01/19 10:03:09;;;;;;;;;;;;;;;23.04;12.80;99179.91;6220575;28;19929;-71
2023/01/19 10:06:13;;;;;;;;;;;;;;;22.27;12.58;99169.75;6220770;28;20354;-72
2023/01/19 10:09:23;;;;;;;;;;;;;;;21.41;13.16;99167.25;6220338;28;20393;-72
2023/01/19 10:12:36;;;;;;;;;;;;;;;20.94;13.14;99172.34;6219787;28;19925;-72
2023/01/19 10:15:52;;;;;;;;;;;;;;;20.46;13.19;99166.75;6219801;28;19933;-71
2023/01/19 10:19:14;;;;;;;;;;;;;;;20.04;13.60;99166.06;6220729;28;19929;-71
2023/01/19 10:22:23;;;;;;;;;;;;;;;19.51;12.96;99167.75;6220182;28;20303;-71
2023/01/19 10:25:25;;;;;;;;;;;;;;;19.15;13.36;99171.81;6219524;28;19925;-71
2023/01/19 10:28:32;;;;;;;;;;;;;;;18.87;12.95;99166.50;6219995;28;20403;-72
2023/01/19 10:31:36;;;;;;;;;;;;;;;18.55;13.52;99174.63;6219850;28;19932;-70
2023/01/19 10:34:42;;;;;;;;;;;;;;;18.11;13.67;99172.81;6220124;28;19925;-71
2023/01/19 10:37:45;;;;;;;;;;;;;;;17.49;13.61;99175.47;6220074;28;19925;-71
2023/01/19 10:40:53;;;;;;;;;;;;;;;14.98;14.59;99176.72;6219731;28;19925;-71
2023/01/19 10:44:00;;;;;;;;;;;;;;;11.15;16.75;99178.91;6220403;28;19937;-72
2023/01/19 10:47:12;;;;;;;;;;;;;;;7.84;18.94;99170.91;6223490;28;19932;-71
2023/01/19 10:50:22;;;;;;;;;;;;;;;5.36;21.05;99183.44;6224023;28;19925;-72
2023/01/19 10:53:24;;;;;;;;;;;;;;;3.59;22.26;99187.50;6223718;28;19932;-71
2023/01/19 10:56:35;;;;;;;;;;;;;;;2.31;22.93;99188.03;6223920;28;19926;-72
2023/01/19 10:59:48;;;;;;;;;;;;;;;1.31;23.63;99185.59;6223675;28;19932;-70
2023/01/19 11:02:52;;;;;;;;;;;;;;;0.53;23.44;99199.44;6223596;28;19929;-70
2023/01/19 11:06:14;;;;;;;;;;;;;;;-0.09;24.49;99206.34;6223682;28;19952;-72
2023/01/19 11:09:20;;;;;;;;;;;;;;;-0.66;23.79;99204.56;6223809;28;20015;-72
2023/01/19 11:12:24;;;;;;;;;;;;;;;-1.09;24.02;99201.22;6223740;28;20324;-72
2023/01/19 11:15:34;;;;;;;;;;;;;;;-1.51;24.69;99212.44;6222897;28;20338;-70
2023/01/19 11:18:38;;;;;;;;;;;;;;;-1.91;24.86;99216.75;6223406;28;20453;-72
2023/01/19 11:21:42;;;;;;;;;;;;;;;-2.27;24.27;99209.91;6223305;28;19925;-72
2023/01/19 11:24:45;;;;;;;;;;;;;;;-2.62;24.60;99213.34;6223212;28;20394;-71
2023/01/19 11:27:50;;;;;;;;;;;;;;;-3.02;24.91;99225.22;6222851;28;20024;-70
2023/01/19 11:31:02;;;;;;;;;;;;;;;-3.49;25.04;99224.75;6222571;28;20279;-71
2023/01/19 11:34:04;;;;;;;;;;;;;;;-3.91;25.81;99225.22;6222693;28;20386;-71
2023/01/19 11:37:17;;;;;;;;;;;;;;;-4.37;25.86;99234.97;6222096;28;19964;-73
2023/01/19 11:40:20;;;;;;;;;;;;;;;-4.84;26.43;99225.69;6222687;28;19925;-71
2023/01/19 11:43:23;;;;;;;;;;;;;;;-5.20;26.31;99227.03;6222452;28;19945;-70
2023/01/19 11:46:28;;;;;;;;;;;;;;;-5.45;26.31;99224.44;6221843;28;20249;-70
2023/01/19 11:49:35;;;;;;;;;;;;;;;-5.71;26.63;99232.03;6221642;28;20060;-72
2023/01/19 11:52:45;;;;;;;;;;;;;;;-6.01;26.53;99229.22;6222623;28;19926;-71
2023/01/19 11:56:07;;;;;;;;;;;;;;;-6.28;27.36;99235.81;6221818;28;19922;-71
2023/01/19 11:59:10;;;;;;;;;;;;;;;-6.52;27.63;99236.59;6222341;28;19968;-70
2023/01/19 12:02:19;;;;;;;;;;;;;;;-6.72;27.91;99243.47;6204033;28;19928;-72
2023/01/19 12:05:27;;;;;;;;;;;;;;;-6.91;28.21;99235.81;6222067;28;20036;-70
2023/01/19 12:08:34;;;;;;;;;;;;;;;-7.08;28.25;99241.09;6221866;28;19937;-70
2023/01/19 12:11:43;;;;;;;;;;;;;;;-7.16;29.69;99232.25;6221861;28;19925;-71
2023/01/19 12:14:53;;;;;;;;;;;;;;;-7.27;29.05;99242.00;6221808;28;19925;-71
2023/01/19 12:17:57;;;;;;;;;;;;;;;-7.42;29.19;99236.22;6221957;28;19947;-71
2023/01/19 12:20:58;;;;;;;;;;;;;;;-7.60;28.54;99240.53;6221826;28;19992;-70
2023/01/19 12:24:15;;;;;;;;;;;;;;;-7.80;29.19;99242.19;6221178;28;19925;-70
2023/01/19 12:27:21;;;;;;;;;;;;;;;-8.01;29.07;99239.50;6221440;28;19948;-71
2023/01/19 12:30:27;;;;;;;;;;;;;;;-8.22;29.02;99237.72;6221878;28;19926;-70
2023/01/19 12:33:32;;;;;;;;;;;;;;;-8.40;29.53;99250.53;6221591;28;20309;-71
2023/01/19 12:36:35;;;;;;;;;;;;;;;-8.57;29.58;99253.94;6203817;28;20017;-71
2023/01/19 12:39:46;;;;;;;;;;;;;;;-8.73;30.00;99247.19;6221465;28;19925;-71
2023/01/19 12:42:54;;;;;;;;;;;;;;;-8.89;29.76;99255.78;6221427;28;20061;-72
2023/01/19 12:45:55;;;;;;;;;;;;;;;-9.04;30.10;99252.47;6204005;28;20395;-71
2023/01/19 12:49:03;;;;;;;;;;;;;;;-9.21;30.47;99256.69;6221237;28;19925;-71
2023/01/19 12:52:20;;;;;;;;;;;;;;;-9.38;30.42;99253.28;6204027;28;20209;-71
2023/01/19 12:55:21;;;;;;;;;;;;;;;-9.56;30.67;99257.44;6221414;28;19933;-70
2023/01/19 12:58:25;;;;;;;;;;;;;;;-9.73;31.02;99257.41;6221253;28;19925;-71
2023/01/19 13:01:26;;;;;;;;;;;;;;;-9.87;30.97;99265.13;6221175;28;19932;-70
2023/01/19 13:04:31;;;;;;;;;;;;;;;-10.01;31.03;99262.72;6221350;28;19930;-70
2023/01/19 13:07:51;;;;;;;;;;;;;;;-10.14;30.87;99265.38;6220671;28;19925;-70
2023/01/19 13:10:52;;;;;;;;;;;;;;;-10.26;31.12;99269.78;6220643;28;19925;-70
2023/01/19 13:13:58;;;;;;;;;;;;;;;-10.37;31.10;99265.81;6220887;28;19925;-70
2023/01/19 13:17:05;;;;;;;;;;;;;;;-10.48;31.53;99258.44;6221027;28;20366;-71
2023/01/19 13:20:26;;;;;;;;;;;;;;;-10.57;31.40;99262.16;6220633;28;19925;-70
2023/01/19 13:23:45;;;;;;;;;;;;;;;-10.66;31.60;99262.50;6220257;28;20011;-70
2023/01/19 13:26:49;;;;;;;;;;;;;;;-10.72;31.51;99264.72;6220098;28;20310;-70
2023/01/19 13:29:54;;;;;;;;;;;;;;;-10.80;31.57;99261.72;6220528;28;19932;-71
2023/01/19 13:33:17;;;;;;;;;;;;;;;-10.89;31.54;99259.53;6220623;28;19933;-70
2023/01/19 13:36:29;;;;;;;;;;;;;;;-10.98;32.97;99269.19;6220428;28;20294;-70
2023/01/19 13:39:39;;;;;;;;;;;;;;;-11.04;33.29;99271.34;6221126;28;20406;-71
2023/01/19 13:42:43;;;;;;;;;;;;;;;-11.08;34.10;99266.88;6220471;28;20309;-70
2023/01/19 13:45:48;;;;;;;;;;;;;;;-11.13;32.94;99266.59;6219891;28;19972;-71
2023/01/19 13:49:15;;;;;;;;;;;;;;;-11.22;32.74;99258.44;6220229;28;19945;-70
2023/01/19 13:52:24;;;;;;;;;;;;;;;-11.35;32.43;99272.09;6204610;28;19932;-70
2023/01/19 13:55:28;;;;;;;;;;;;;;;-11.46;31.95;99270.59;6220437;28;19925;-70
2023/01/19 13:58:32;;;;;;;;;;;;;;;-11.55;32.15;99272.56;6220045;28;19933;-72
2023/01/19 14:01:33;;;;;;;;;;;;;;;-11.63;32.49;99273.75;6219833;28;19991;-72
2023/01/19 14:04:36;;;;;;;;;;;;;;;-11.65;32.69;99277.88;6220291;28;19925;-71
2023/01/19 14:07:42;;;;;;;;;;;;;;;-11.68;32.90;99270.06;6220156;28;20032;-71
2023/01/19 14:10:46;;;;;;;;;;;;;;;-11.75;32.88;99278.97;6219929;28;19926;-71
2023/01/19 14:13:47;;;;;;;;;;;;;;;-11.82;32.91;99277.72;6219974;28;19925;-71
2023/01/19 14:16:50;;;;;;;;;;;;;;;-11.88;33.13;99281.59;6220048;28;20391;-71
2023/01/19 14:19:55;;;;;;;;;;;;;;;-11.95;32.66;99284.53;6221973;28;20302;-72
2023/01/19 14:22:58;;;;;;;;;;;;;;;-12.04;32.73;99279.75;6224754;28;19932;-70
2023/01/19 14:26:02;;;;;;;;;;;;;;;-12.10;33.17;99279.38;6224556;28;19932;-70
2023/01/19 14:29:10;;;;;;;;;;;;;;;-12.14;34.19;99272.34;6224542;28;20023;-71
2023/01/19 14:32:15;;;;;;;;;;;;;;;-12.15;33.10;99275.66;6224722;28;19926;-71
2023/01/19 14:35:23;;;;;;;;;;;;;;;-12.17;33.66;99279.75;6224086;28;20012;-72
2023/01/19 14:38:24;;;;;;;;;;;;;;;-12.19;33.09;99273.72;6223616;28;19926;-70
2023/01/19 14:41:48;;;;;;;;;;;;;;;-12.25;33.39;99280.16;6223604;28;20200;-71
2023/01/19 14:44:50;;;;;;;;;;;;;;;-12.28;34.58;99279.13;6223844;28;19925;-71
2023/01/19 14:47:56;;;;;;;;;;;;;;;-12.30;33.83;99281.53;6224307;28;19926;-70
2023/01/19 14:51:02;;;;;;;;;;;;;;;-12.38;33.93;99280.16;6223480;28;19925;-71
2023/01/19 14:54:14;;;;;;;;;;;;;;;-12.45;33.61;99283.13;6224253;28;19925;-70
2023/01/19 14:57:15;;;;;;;;;;;;;;;-12.56;33.85;99279.00;6223641;28;19925;-71
2023/01/19 15:00:17;;;;;;;;;;;;;;;-12.65;33.94;99284.38;6223359;28;19933;-70
2023/01/19 15:03:21;;;;;;;;;;;;;;;-12.70;33.96;99278.13;6223779;28;19925;-71
2023/01/19 15:06:24;;;;;;;;;;;;;;;-12.73;34.89;99283.88;6223929;28;19930;-71
2023/01/19 15:09:25;;;;;;;;;;;;;;;-12.75;34.18;99279.47;6223612;28;19938;-71
2023/01/19 15:12:27;;;;;;;;;;;;;;;-12.80;35.82;99286.75;6223411;28;19925;-70
2023/01/19 15:15:30;;;;;;;;;;;;;;;-12.85;34.62;99283.03;6223465;28;19933;-70
2023/01/19 15:18:31;;;;;;;;;;;;;;;-12.92;34.88;99285.97;6223217;28;20016;-71
2023/01/19 15:21:36;;;;;;;;;;;;;;;-12.96;34.99;99278.97;6223099;28;19925;-71
2023/01/19 15:24:38;;;;;;;;;;;;;;;-13.00;34.66;99277.00;6223345;28;19952;-71
2023/01/19 15:27:43;;;;;;;;;;;;;;;-13.04;34.61;99285.19;6222610;28;19925;-71
2023/01/19 15:30:44;;;;;;;;;;;;;;;-13.11;34.61;99279.69;6221388;28;20036;-71
2023/01/19 15:33:45;;;;;;;;;;;;;;;-13.15;34.98;99277.75;6222823;28;19932;-70
2023/01/19 15:36:46;;;;;;;;;;;;;;;-13.18;35.38;99282.59;6222409;28;20354;-70
2023/01/19 15:39:49;;;;;;;;;;;;;;;-13.22;35.41;99280.63;6222694;28;19925;-70
2023/01/19 15:42:53;;;;;;;;;;;;;;;-13.29;35.26;99281.03;6223017;28;20361;-70
2023/01/19 15:45:59;;;;;;;;;;;;;;;-13.37;34.89;99282.19;6222560;28;19932;-70
2023/01/19 15:49:00;;;;;;;;;;;;;;;-13.45;35.49;99275.72;6222791;28;19929;-70
2023/01/19 15:52:04;;;;;;;;;;;;;;;-13.49;35.08;99278.81;6222757;28;20076;-71
2023/01/19 15:55:08;;;;;;;;;;;;;;;-13.54;35.63;99285.22;6222783;28;19925;-70
2023/01/19 15:58:12;;;;;;;;;;;;;;;-13.60;35.04;99278.09;6205280;28;19929;-70
2023/01/19 16:01:16;;;;;;;;;;;;;;;-13.66;35.66;99270.97;6222425;28;20433;-71
2023/01/19 16:04:26;;;;;;;;;;;;;;;-13.69;36.04;99270.75;6222444;28;19926;-70